Barnes Municipal Airport Westfield,Springfield US
ICAO: KBAF
IATA: BAF
Category: Medium
Scheduled Services: No

Elevation: 271 ft
TransAlt. 18000 ft.

Airport Communications:
BRADLEY APP/DEP:125.35
ATIS:127.1
BRADLEY CLNC DEL:121.7
CTAF:118.9
GND:121.7
ARNG OPS:46.75
ANG OPS CNTR:30.3
BURLINGTON RDO:113
WESTFIELD TWR:118.9

KBAF Zoom In..

If you have problems with the map follow the link
https://www.worldairports.se/pages/airport.php?
ICAO=KBAF

Runways:

(A) RW 02 length 9000 ft width 150 ft
---- / hdg 24

(B) RW 15 length 5000 ft width 100 ft
---- / hdg 154

(C) RW 20 length 9000 ft width 150 ft
ILS 111.90 / hdg 204

(D) RW 33 length 5000 ft width 100 ft
---- / hdg 334

Location; KBAF
Day. 05 / Time. 21.53 Zulu
* Altimeter: 29.82
* Temperature: 01° c. 33.8°f.
* Wind from: 330° Speed 15 kn with Gusts up to 20 kn.
Dewpoint: -09° c.
Visibility: 10 Statute Miles.
Clouds: Broken 7500 ft.

KBAF 052153Z 33015G20KT 10SM BKN075 01/M09 A2982 RMK AO2 PK WND 30031/2104 SLP104 T00111089


Wind From 330°
Speed 15 kn.

 
 
jpsmedia worldairports.se 2019   terms of use